createdAt,value
2023-03-22T00:07:52.633Z,0.00
2023-03-22T00:17:58.771Z,0.00
2023-03-22T00:28:05.008Z,0.00
2023-03-22T00:38:11.094Z,0.00
2023-03-22T00:48:17.461Z,0.00
2023-03-22T00:58:23.524Z,0.00
2023-03-22T01:08:30.140Z,0.00
2023-03-22T01:18:36.430Z,0.00
2023-03-22T01:28:42.332Z,0.00
2023-03-22T01:38:48.372Z,0.00
2023-03-22T01:48:54.904Z,0.00
2023-03-22T01:59:00.326Z,0.00
2023-03-22T02:09:06.079Z,0.00
2023-03-22T02:19:11.991Z,0.00
2023-03-22T02:29:17.675Z,0.00
2023-03-22T02:39:23.263Z,0.00
2023-03-22T02:49:28.370Z,0.00
2023-03-22T02:59:34.102Z,0.00
2023-03-22T03:09:39.490Z,0.00
2023-03-22T03:19:45.100Z,0.00
2023-03-22T03:29:50.846Z,0.00
2023-03-22T03:39:56.324Z,0.00
2023-03-22T03:50:02.228Z,0.00
2023-03-22T04:00:07.631Z,0.00
2023-03-22T04:10:13.371Z,0.00
2023-03-22T04:20:18.965Z,0.00
2023-03-22T04:30:24.573Z,0.00
2023-03-22T04:40:30.534Z,0.00
2023-03-22T04:50:35.805Z,0.00
2023-03-22T05:00:41.357Z,0.00
2023-03-22T05:10:47.548Z,0.00
2023-03-22T05:20:53.301Z,0.00
2023-03-22T05:30:59.196Z,4.00
2023-03-22T05:41:04.310Z,4.00
2023-03-22T05:51:04.819Z,12.00
2023-03-22T06:01:09.114Z,16.00
2023-03-22T06:11:17.403Z,12.00
2023-03-22T06:21:24.188Z,20.00
2023-03-22T06:31:30.482Z,20.00
2023-03-22T06:41:36.300Z,20.00
2023-03-22T06:51:41.744Z,24.00
2023-03-22T07:01:47.356Z,24.00
2023-03-22T07:11:53.054Z,28.00
2023-03-22T07:21:58.610Z,36.00
2023-03-22T07:32:04.213Z,52.00
2023-03-22T07:42:09.872Z,36.00
2023-03-22T07:52:16.254Z,44.00
2023-03-22T08:02:22.627Z,48.00
2023-03-22T08:12:28.723Z,76.00
2023-03-22T08:22:34.775Z,84.00
2023-03-22T08:32:40.516Z,124.00
2023-03-22T08:42:46.971Z,268.00
2023-03-22T08:52:53.065Z,332.00
2023-03-22T09:02:59.098Z,104.00
2023-03-22T09:13:05.427Z,352.00
2023-03-22T09:23:11.209Z,752.00
2023-03-22T09:33:17.635Z,844.00
2023-03-22T09:43:24.499Z,304.00
2023-03-22T09:53:30.507Z,52.00
2023-03-22T10:03:36.871Z,48.00
2023-03-22T10:13:43.139Z,72.00
2023-03-22T10:23:49.275Z,264.00
2023-03-22T10:33:55.941Z,756.00
2023-03-22T10:44:02.736Z,732.00
2023-03-22T10:54:10.064Z,564.00
2023-03-22T11:04:16.380Z,468.00
2023-03-22T11:14:23.174Z,584.00
2023-03-22T11:24:29.428Z,156.00
2023-03-22T11:34:36.019Z,344.00
2023-03-22T11:44:42.770Z,136.00
2023-03-22T11:54:49.354Z,72.00
2023-03-22T12:04:55.936Z,96.00
2023-03-22T12:15:02.405Z,68.00
2023-03-22T12:25:09.162Z,60.00
2023-03-22T12:35:17.656Z,68.00
2023-03-22T12:45:24.939Z,56.00
2023-03-22T12:55:31.468Z,44.00
2023-03-22T13:05:38.226Z,40.00
2023-03-22T13:15:45.179Z,40.00
2023-03-22T13:25:51.701Z,44.00
2023-03-22T13:35:57.857Z,32.00
2023-03-22T13:46:04.448Z,20.00
2023-03-22T13:56:10.459Z,16.00
2023-03-22T14:06:17.175Z,16.00
2023-03-22T14:16:23.919Z,16.00
2023-03-22T14:46:03.403Z,16.00
2023-03-22T14:56:05.662Z,16.00
2023-03-22T15:06:11.812Z,16.00
2023-03-22T15:16:18.441Z,12.00
2023-03-22T15:26:25.058Z,16.00
2023-03-22T15:36:31.647Z,12.00
2023-03-22T15:46:37.966Z,12.00
2023-03-22T15:56:44.639Z,4.00
2023-03-22T16:06:51.105Z,8.00
2023-03-22T16:16:57.661Z,4.00
2023-03-22T16:27:04.169Z,4.00
2023-03-22T16:37:11.187Z,4.00
2023-03-22T16:47:17.593Z,4.00
2023-03-22T16:57:23.630Z,0.00
2023-03-22T17:07:30.167Z,0.00
2023-03-22T17:17:36.880Z,0.00
2023-03-22T17:27:43.345Z,0.00
2023-03-22T17:37:49.676Z,0.00
2023-03-22T17:47:56.876Z,0.00
2023-03-22T17:58:27.533Z,0.00
2023-03-22T18:08:27.862Z,0.00
2023-03-22T18:18:25.156Z,0.00
2023-03-22T18:28:31.200Z,0.00
2023-03-22T18:39:07.199Z,0.00
2023-03-22T18:48:48.124Z,0.00
2023-03-22T18:58:54.564Z,0.00
2023-03-22T19:09:01.094Z,0.00
2023-03-22T19:19:10.993Z,0.00
2023-03-22T19:29:17.676Z,0.00
2023-03-22T19:39:23.720Z,0.00
2023-03-22T19:49:29.489Z,0.00
2023-03-22T19:59:37.991Z,0.00
2023-03-22T20:09:43.045Z,0.00
2023-03-22T20:19:49.158Z,0.00
2023-03-22T20:29:55.999Z,0.00
2023-03-22T20:40:02.330Z,0.00
2023-03-22T20:50:09.223Z,4.00
2023-03-22T21:00:16.757Z,0.00
2023-03-22T21:10:23.914Z,0.00
2023-03-22T21:20:32.832Z,0.00
2023-03-22T21:30:39.713Z,0.00
2023-03-22T21:40:46.105Z,0.00
2023-03-22T21:50:52.418Z,0.00
2023-03-22T22:00:58.921Z,0.00
2023-03-22T22:11:05.144Z,0.00
2023-03-22T22:21:11.018Z,0.00
2023-03-22T22:31:16.928Z,0.00
2023-03-22T22:41:22.799Z,0.00
2023-03-22T22:51:28.965Z,0.00
2023-03-22T23:01:34.864Z,0.00
2023-03-22T23:11:40.723Z,0.00
2023-03-22T23:21:46.449Z,0.00
2023-03-22T23:31:51.924Z,0.00
2023-03-22T23:41:57.611Z,0.00
2023-03-22T23:52:03.549Z,0.00
